sensor_id;sensor_type;location;lat;lon;timestamp;temperature;humidity
16578;DHT22;8401;52.528;13.340;2022-08-11T00:01:53;21.40;99.90
16578;DHT22;8401;52.528;13.340;2022-08-11T00:04:25;21.20;99.90
16578;DHT22;8401;52.528;13.340;2022-08-11T00:06:52;21.30;99.90
16578;DHT22;8401;52.528;13.340;2022-08-11T00:09:20;21.20;99.90
16578;DHT22;8401;52.528;13.340;2022-08-11T00:11:51;21.00;99.90
16578;DHT22;8401;52.528;13.340;2022-08-11T00:14:23;21.00;99.90
16578;DHT22;8401;52.528;13.340;2022-08-11T00:17:10;21.00;99.90
16578;DHT22;8401;52.528;13.340;2022-08-11T00:19:40;20.90;99.90
16578;DHT22;8401;52.528;13.340;2022-08-11T00:22:09;21.00;99.90
16578;DHT22;8401;52.528;13.340;2022-08-11T00:24:39;20.90;99.90
16578;DHT22;8401;52.528;13.340;2022-08-11T00:27:06;21.00;99.90
16578;DHT22;8401;52.528;13.340;2022-08-11T00:29:32;20.90;99.90
16578;DHT22;8401;52.528;13.340;2022-08-11T00:32:00;20.90;99.90
16578;DHT22;8401;52.528;13.340;2022-08-11T00:34:34;21.10;99.90
16578;DHT22;8401;52.528;13.340;2022-08-11T00:37:09;21.10;99.90
16578;DHT22;8401;52.528;13.340;2022-08-11T00:39:47;20.90;99.90
16578;DHT22;8401;52.528;13.340;2022-08-11T00:48:40;20.70;99.90
16578;DHT22;8401;52.528;13.340;2022-08-11T00:50:51;20.80;99.90
16578;DHT22;8401;52.528;13.340;2022-08-11T01:04:37;20.50;99.90
16578;DHT22;8401;52.528;13.340;2022-08-11T01:10:43;20.60;99.90
16578;DHT22;8401;52.528;13.340;2022-08-11T01:27:49;20.40;99.90
16578;DHT22;8401;52.528;13.340;2022-08-11T01:47:48;20.20;99.90
16578;DHT22;8401;52.528;13.340;2022-08-11T01:50:52;20.10;99.90
16578;DHT22;8401;52.528;13.340;2022-08-11T01:53:44;20.10;99.90
16578;DHT22;8401;52.528;13.340;2022-08-11T01:56:29;20.10;99.90
16578;DHT22;8401;52.528;13.340;2022-08-11T01:59:07;20.00;99.90
16578;DHT22;8401;52.528;13.340;2022-08-11T02:04:52;20.10;99.90
16578;DHT22;8401;52.528;13.340;2022-08-11T02:07:29;20.00;99.90
16578;DHT22;8401;52.528;13.340;2022-08-11T02:12:59;20.00;99.90
16578;DHT22;8401;52.528;13.340;2022-08-11T02:15:46;19.90;99.90
16578;DHT22;8401;52.528;13.340;2022-08-11T02:18:22;20.00;99.90
16578;DHT22;8401;52.528;13.340;2022-08-11T02:20:56;20.10;99.90
16578;DHT22;8401;52.528;13.340;2022-08-11T02:24:02;19.90;99.90
16578;DHT22;8401;52.528;13.340;2022-08-11T02:26:45;19.90;99.90
16578;DHT22;8401;52.528;13.340;2022-08-11T02:29:18;20.00;99.90
16578;DHT22;8401;52.528;13.340;2022-08-11T02:31:53;20.00;99.90
16578;DHT22;8401;52.528;13.340;2022-08-11T02:42:55;19.80;99.90
16578;DHT22;8401;52.528;13.340;2022-08-11T02:45:47;19.80;99.90
16578;DHT22;8401;52.528;13.340;2022-08-11T02:48:46;19.70;99.90
16578;DHT22;8401;52.528;13.340;2022-08-11T02:54:57;19.70;99.90
16578;DHT22;8401;52.528;13.340;2022-08-11T02:57:46;19.70;99.90
16578;DHT22;8401;52.528;13.340;2022-08-11T03:00:15;19.60;99.90
16578;DHT22;8401;52.528;13.340;2022-08-11T03:03:43;19.60;99.90
16578;DHT22;8401;52.528;13.340;2022-08-11T03:08:50;19.60;99.90
16578;DHT22;8401;52.528;13.340;2022-08-11T03:14:32;19.60;99.90
16578;DHT22;8401;52.528;13.340;2022-08-11T03:20:44;19.60;99.90
16578;DHT22;8401;52.528;13.340;2022-08-11T03:23:23;19.50;99.90
16578;DHT22;8401;52.528;13.340;2022-08-11T03:26:02;19.50;99.90
16578;DHT22;8401;52.528;13.340;2022-08-11T03:31:31;19.60;99.90
16578;DHT22;8401;52.528;13.340;2022-08-11T03:33:59;19.60;99.90
16578;DHT22;8401;52.528;13.340;2022-08-11T03:47:53;19.40;99.90
16578;DHT22;8401;52.528;13.340;2022-08-11T04:30:13;19.50;99.90
16578;DHT22;8401;52.528;13.340;2022-08-11T04:44:21;19.50;99.90
16578;DHT22;8401;52.528;13.340;2022-08-11T04:47:21;19.60;99.90
16578;DHT22;8401;52.528;13.340;2022-08-11T04:56:20;19.80;99.90
16578;DHT22;8401;52.528;13.340;2022-08-11T05:10:59;19.90;99.90
16578;DHT22;8401;52.528;13.340;2022-08-11T05:13:44;20.10;99.90
16578;DHT22;8401;52.528;13.340;2022-08-11T05:16:40;20.10;99.90
16578;DHT22;8401;52.528;13.340;2022-08-11T05:19:25;20.30;99.90
16578;DHT22;8401;52.528;13.340;2022-08-11T05:22:12;20.40;99.90
16578;DHT22;8401;52.528;13.340;2022-08-11T05:25:09;20.40;99.90
16578;DHT22;8401;52.528;13.340;2022-08-11T05:28:02;20.50;99.90
16578;DHT22;8401;52.528;13.340;2022-08-11T05:30:53;20.60;99.90
16578;DHT22;8401;52.528;13.340;2022-08-11T05:33:47;20.50;99.90
16578;DHT22;8401;52.528;13.340;2022-08-11T05:36:48;20.50;99.90
16578;DHT22;8401;52.528;13.340;2022-08-11T05:39:17;20.40;99.90
16578;DHT22;8401;52.528;13.340;2022-08-11T05:42:04;20.40;99.90
16578;DHT22;8401;52.528;13.340;2022-08-11T05:44:50;20.50;99.90
16578;DHT22;8401;52.528;13.340;2022-08-11T05:47:37;20.60;99.90
16578;DHT22;8401;52.528;13.340;2022-08-11T05:50:22;20.70;99.90
16578;DHT22;8401;52.528;13.340;2022-08-11T05:53:12;20.70;99.90
16578;DHT22;8401;52.528;13.340;2022-08-11T05:55:57;20.80;99.90
16578;DHT22;8401;52.528;13.340;2022-08-11T05:58:45;20.90;99.90
16578;DHT22;8401;52.528;13.340;2022-08-11T06:01:13;20.90;99.90
16578;DHT22;8401;52.528;13.340;2022-08-11T06:03:52;20.90;99.90
16578;DHT22;8401;52.528;13.340;2022-08-11T06:06:48;20.90;99.90
16578;DHT22;8401;52.528;13.340;2022-08-11T06:09:22;20.90;99.90
16578;DHT22;8401;52.528;13.340;2022-08-11T06:11:49;21.00;99.90
16578;DHT22;8401;52.528;13.340;2022-08-11T06:14:15;21.00;99.90
16578;DHT22;8401;52.528;13.340;2022-08-11T06:16:41;21.10;99.90
16578;DHT22;8401;52.528;13.340;2022-08-11T06:19:08;21.20;99.90
16578;DHT22;8401;52.528;13.340;2022-08-11T06:21:34;21.30;99.90
16578;DHT22;8401;52.528;13.340;2022-08-11T06:24:03;21.40;99.90
16578;DHT22;8401;52.528;13.340;2022-08-11T06:26:30;21.50;99.90
16578;DHT22;8401;52.528;13.340;2022-08-11T06:28:58;21.60;99.90
16578;DHT22;8401;52.528;13.340;2022-08-11T06:31:25;21.50;99.90
16578;DHT22;8401;52.528;13.340;2022-08-11T06:33:57;21.60;99.90
16578;DHT22;8401;52.528;13.340;2022-08-11T06:36:43;21.70;99.90
16578;DHT22;8401;52.528;13.340;2022-08-11T06:39:32;21.70;99.90
16578;DHT22;8401;52.528;13.340;2022-08-11T06:44:38;21.90;99.90
16578;DHT22;8401;52.528;13.340;2022-08-11T06:47:10;22.00;99.90
16578;DHT22;8401;52.528;13.340;2022-08-11T06:49:44;22.00;99.90
16578;DHT22;8401;52.528;13.340;2022-08-11T06:52:35;22.10;99.90
16578;DHT22;8401;52.528;13.340;2022-08-11T06:55:11;22.20;99.90
16578;DHT22;8401;52.528;13.340;2022-08-11T06:57:40;22.30;99.90
16578;DHT22;8401;52.528;13.340;2022-08-11T07:00:29;22.40;99.90
16578;DHT22;8401;52.528;13.340;2022-08-11T07:03:06;22.60;99.90
16578;DHT22;8401;52.528;13.340;2022-08-11T07:05:48;22.60;99.90
16578;DHT22;8401;52.528;13.340;2022-08-11T07:14:52;22.90;99.90
16578;DHT22;8401;52.528;13.340;2022-08-11T07:17:44;23.10;99.90
16578;DHT22;8401;52.528;13.340;2022-08-11T07:20:34;23.30;99.90
16578;DHT22;8401;52.528;13.340;2022-08-11T07:23:19;23.40;99.90
16578;DHT22;8401;52.528;13.340;2022-08-11T07:26:04;23.40;99.90
16578;DHT22;8401;52.528;13.340;2022-08-11T07:28:50;23.50;99.90
16578;DHT22;8401;52.528;13.340;2022-08-11T07:31:33;23.70;99.90
16578;DHT22;8401;52.528;13.340;2022-08-11T07:34:19;23.80;99.90
16578;DHT22;8401;52.528;13.340;2022-08-11T07:36:51;24.10;99.90
16578;DHT22;8401;52.528;13.340;2022-08-11T07:39:20;24.20;99.90
16578;DHT22;8401;52.528;13.340;2022-08-11T07:41:47;24.30;99.90
16578;DHT22;8401;52.528;13.340;2022-08-11T07:44:14;24.60;99.90
16578;DHT22;8401;52.528;13.340;2022-08-11T07:46:42;24.70;99.90
16578;DHT22;8401;52.528;13.340;2022-08-11T07:49:29;24.80;99.90
16578;DHT22;8401;52.528;13.340;2022-08-11T07:52:14;25.00;99.90
16578;DHT22;8401;52.528;13.340;2022-08-11T07:57:27;25.40;99.90
16578;DHT22;8401;52.528;13.340;2022-08-11T08:00:12;25.80;99.90
16578;DHT22;8401;52.528;13.340;2022-08-11T08:02:58;25.50;99.90
16578;DHT22;8401;52.528;13.340;2022-08-11T08:05:44;25.90;99.90
16578;DHT22;8401;52.528;13.340;2022-08-11T08:08:30;26.30;99.90
16578;DHT22;8401;52.528;13.340;2022-08-11T08:11:15;26.70;99.90
16578;DHT22;8401;52.528;13.340;2022-08-11T08:14:00;27.10;99.90
16578;DHT22;8401;52.528;13.340;2022-08-11T08:16:45;27.50;99.90
16578;DHT22;8401;52.528;13.340;2022-08-11T08:19:30;27.70;99.90
16578;DHT22;8401;52.528;13.340;2022-08-11T08:21:57;27.60;99.90
16578;DHT22;8401;52.528;13.340;2022-08-11T08:24:24;27.50;99.90
16578;DHT22;8401;52.528;13.340;2022-08-11T08:26:50;28.20;99.90
16578;DHT22;8401;52.528;13.340;2022-08-11T08:29:31;29.10;99.90
16578;DHT22;8401;52.528;13.340;2022-08-11T08:32:17;30.00;99.90
16578;DHT22;8401;52.528;13.340;2022-08-11T08:34:43;31.10;96.20
16578;DHT22;8401;52.528;13.340;2022-08-11T08:37:10;31.70;92.40
16578;DHT22;8401;52.528;13.340;2022-08-11T08:39:37;33.20;87.60
16578;DHT22;8401;52.528;13.340;2022-08-11T08:42:12;32.80;83.00
16578;DHT22;8401;52.528;13.340;2022-08-11T08:44:44;33.70;79.70
16578;DHT22;8401;52.528;13.340;2022-08-11T08:47:16;34.00;76.60
16578;DHT22;8401;52.528;13.340;2022-08-11T08:49:49;33.40;75.30
16578;DHT22;8401;52.528;13.340;2022-08-11T08:52:21;34.50;72.90
16578;DHT22;8401;52.528;13.340;2022-08-11T08:54:50;34.30;70.40
16578;DHT22;8401;52.528;13.340;2022-08-11T08:57:21;34.10;71.50
16578;DHT22;8401;52.528;13.340;2022-08-11T08:59:47;35.00;67.90
16578;DHT22;8401;52.528;13.340;2022-08-11T09:02:14;34.40;68.80
16578;DHT22;8401;52.528;13.340;2022-08-11T09:04:43;34.30;66.60
16578;DHT22;8401;52.528;13.340;2022-08-11T09:07:21;33.10;68.50
16578;DHT22;8401;52.528;13.340;2022-08-11T09:09:52;33.70;68.10
16578;DHT22;8401;52.528;13.340;2022-08-11T09:12:19;34.30;66.10
16578;DHT22;8401;52.528;13.340;2022-08-11T09:14:48;34.90;65.70
16578;DHT22;8401;52.528;13.340;2022-08-11T09:17:36;35.00;64.00
16578;DHT22;8401;52.528;13.340;2022-08-11T09:22:35;33.20;65.70
16578;DHT22;8401;52.528;13.340;2022-08-11T09:25:21;34.90;64.10
16578;DHT22;8401;52.528;13.340;2022-08-11T09:28:12;36.40;61.20
16578;DHT22;8401;52.528;13.340;2022-08-11T09:30:44;35.60;59.60
16578;DHT22;8401;52.528;13.340;2022-08-11T09:33:12;34.00;61.40
16578;DHT22;8401;52.528;13.340;2022-08-11T09:35:40;33.90;61.60
16578;DHT22;8401;52.528;13.340;2022-08-11T09:38:10;34.10;60.60
16578;DHT22;8401;52.528;13.340;2022-08-11T09:40:54;36.20;59.10
16578;DHT22;8401;52.528;13.340;2022-08-11T09:43:20;35.40;57.50
16578;DHT22;8401;52.528;13.340;2022-08-11T09:46:06;36.50;56.70
16578;DHT22;8401;52.528;13.340;2022-08-11T09:48:51;35.50;56.90
16578;DHT22;8401;52.528;13.340;2022-08-11T09:51:20;35.80;56.90
16578;DHT22;8401;52.528;13.340;2022-08-11T09:53:46;37.90;55.20
16578;DHT22;8401;52.528;13.340;2022-08-11T09:56:20;38.10;54.50
16578;DHT22;8401;52.528;13.340;2022-08-11T09:59:04;36.00;55.70
16578;DHT22;8401;52.528;13.340;2022-08-11T10:01:38;36.70;55.80
16578;DHT22;8401;52.528;13.340;2022-08-11T10:04:16;37.60;54.00
16578;DHT22;8401;52.528;13.340;2022-08-11T10:06:44;36.00;54.30
16578;DHT22;8401;52.528;13.340;2022-08-11T10:09:38;37.50;53.90
16578;DHT22;8401;52.528;13.340;2022-08-11T10:12:11;36.30;53.60
16578;DHT22;8401;52.528;13.340;2022-08-11T10:14:43;36.90;53.60
16578;DHT22;8401;52.528;13.340;2022-08-11T10:17:31;35.10;54.30
16578;DHT22;8401;52.528;13.340;2022-08-11T10:19:58;33.80;55.70
16578;DHT22;8401;52.528;13.340;2022-08-11T10:22:27;35.00;56.10
16578;DHT22;8401;52.528;13.340;2022-08-11T10:25:13;35.20;54.80
16578;DHT22;8401;52.528;13.340;2022-08-11T10:27:58;35.00;55.00
16578;DHT22;8401;52.528;13.340;2022-08-11T10:30:25;35.30;54.60
16578;DHT22;8401;52.528;13.340;2022-08-11T10:33:13;35.60;53.60
16578;DHT22;8401;52.528;13.340;2022-08-11T10:35:59;35.20;54.20
16578;DHT22;8401;52.528;13.340;2022-08-11T10:38:26;35.80;54.20
16578;DHT22;8401;52.528;13.340;2022-08-11T10:40:53;36.60;53.80
16578;DHT22;8401;52.528;13.340;2022-08-11T10:43:39;36.80;52.80
16578;DHT22;8401;52.528;13.340;2022-08-11T10:46:09;36.30;53.10
16578;DHT22;8401;52.528;13.340;2022-08-11T10:48:55;37.50;51.80
16578;DHT22;8401;52.528;13.340;2022-08-11T10:51:25;36.00;52.20
16578;DHT22;8401;52.528;13.340;2022-08-11T10:54:10;35.20;54.10
16578;DHT22;8401;52.528;13.340;2022-08-11T10:56:55;35.30;53.10
16578;DHT22;8401;52.528;13.340;2022-08-11T10:59:39;36.30;53.20
16578;DHT22;8401;52.528;13.340;2022-08-11T11:02:10;36.90;51.30
16578;DHT22;8401;52.528;13.340;2022-08-11T11:07:30;35.70;52.90
16578;DHT22;8401;52.528;13.340;2022-08-11T11:10:00;38.50;51.00
16578;DHT22;8401;52.528;13.340;2022-08-11T11:12:35;38.80;49.60
16578;DHT22;8401;52.528;13.340;2022-08-11T11:15:22;38.90;49.00
16578;DHT22;8401;52.528;13.340;2022-08-11T11:18:18;38.10;49.20
16578;DHT22;8401;52.528;13.340;2022-08-11T11:20:57;34.20;52.00
16578;DHT22;8401;52.528;13.340;2022-08-11T11:31:47;37.20;51.50
16578;DHT22;8401;52.528;13.340;2022-08-11T11:37:19;38.60;49.10
16578;DHT22;8401;52.528;13.340;2022-08-11T11:39:45;38.70;48.90
16578;DHT22;8401;52.528;13.340;2022-08-11T11:42:12;40.60;47.30
16578;DHT22;8401;52.528;13.340;2022-08-11T11:44:40;40.80;46.50
16578;DHT22;8401;52.528;13.340;2022-08-11T11:47:07;38.30;47.00
16578;DHT22;8401;52.528;13.340;2022-08-11T11:49:36;36.20;48.60
16578;DHT22;8401;52.528;13.340;2022-08-11T11:52:06;36.00;50.30
16578;DHT22;8401;52.528;13.340;2022-08-11T11:54:33;38.50;49.00
16578;DHT22;8401;52.528;13.340;2022-08-11T11:57:01;38.90;47.60
16578;DHT22;8401;52.528;13.340;2022-08-11T11:59:48;39.00;48.00
16578;DHT22;8401;52.528;13.340;2022-08-11T12:02:34;40.20;46.80
16578;DHT22;8401;52.528;13.340;2022-08-11T12:05:01;38.10;47.10
16578;DHT22;8401;52.528;13.340;2022-08-11T12:07:28;37.00;48.50
16578;DHT22;8401;52.528;13.340;2022-08-11T12:10:15;35.20;49.60
16578;DHT22;8401;52.528;13.340;2022-08-11T12:12:42;33.60;51.40
16578;DHT22;8401;52.528;13.340;2022-08-11T12:15:27;33.20;52.20
16578;DHT22;8401;52.528;13.340;2022-08-11T12:17:53;32.50;53.30
16578;DHT22;8401;52.528;13.340;2022-08-11T12:20:21;33.00;52.60
16578;DHT22;8401;52.528;13.340;2022-08-11T12:22:47;32.60;52.60
16578;DHT22;8401;52.528;13.340;2022-08-11T12:25:33;32.80;52.50
16578;DHT22;8401;52.528;13.340;2022-08-11T12:28:18;32.60;53.30
16578;DHT22;8401;52.528;13.340;2022-08-11T12:30:48;32.80;52.80
16578;DHT22;8401;52.528;13.340;2022-08-11T12:33:15;32.60;53.00
16578;DHT22;8401;52.528;13.340;2022-08-11T12:35:42;32.60;53.40
16578;DHT22;8401;52.528;13.340;2022-08-11T12:38:08;32.40;53.30
16578;DHT22;8401;52.528;13.340;2022-08-11T12:40:36;32.20;53.50
16578;DHT22;8401;52.528;13.340;2022-08-11T12:43:22;32.20;53.60
16578;DHT22;8401;52.528;13.340;2022-08-11T12:46:30;32.20;53.40
16578;DHT22;8401;52.528;13.340;2022-08-11T12:48:58;31.60;53.70
16578;DHT22;8401;52.528;13.340;2022-08-11T12:51:52;31.10;54.50
16578;DHT22;8401;52.528;13.340;2022-08-11T12:57:28;31.80;53.70
16578;DHT22;8401;52.528;13.340;2022-08-11T13:00:13;32.00;53.50
16578;DHT22;8401;52.528;13.340;2022-08-11T13:02:58;32.40;52.90
16578;DHT22;8401;52.528;13.340;2022-08-11T13:05:45;32.00;52.30
16578;DHT22;8401;52.528;13.340;2022-08-11T13:08:15;31.30;52.90
16578;DHT22;8401;52.528;13.340;2022-08-11T13:10:42;31.30;53.20
16578;DHT22;8401;52.528;13.340;2022-08-11T13:13:28;31.00;53.60
16578;DHT22;8401;52.528;13.340;2022-08-11T13:15:54;31.10;53.40
16578;DHT22;8401;52.528;13.340;2022-08-11T13:18:22;31.10;53.70
16578;DHT22;8401;52.528;13.340;2022-08-11T13:20:50;31.10;53.70
16578;DHT22;8401;52.528;13.340;2022-08-11T13:23:17;31.10;54.30
16578;DHT22;8401;52.528;13.340;2022-08-11T13:25:44;31.20;54.60
16578;DHT22;8401;52.528;13.340;2022-08-11T13:28:10;31.20;54.80
16578;DHT22;8401;52.528;13.340;2022-08-11T13:30:37;31.30;54.60
16578;DHT22;8401;52.528;13.340;2022-08-11T13:33:22;31.20;55.10
16578;DHT22;8401;52.528;13.340;2022-08-11T13:35:51;31.40;54.20
16578;DHT22;8401;52.528;13.340;2022-08-11T13:38:19;31.30;54.50
16578;DHT22;8401;52.528;13.340;2022-08-11T13:40:48;31.40;54.60
16578;DHT22;8401;52.528;13.340;2022-08-11T13:43:14;31.50;54.10
16578;DHT22;8401;52.528;13.340;2022-08-11T13:45:41;31.50;53.90
16578;DHT22;8401;52.528;13.340;2022-08-11T13:48:08;31.80;53.80
16578;DHT22;8401;52.528;13.340;2022-08-11T13:50:36;32.20;52.90
16578;DHT22;8401;52.528;13.340;2022-08-11T13:53:23;32.10;53.00
16578;DHT22;8401;52.528;13.340;2022-08-11T13:55:49;32.30;52.60
16578;DHT22;8401;52.528;13.340;2022-08-11T13:58:16;32.20;52.80
16578;DHT22;8401;52.528;13.340;2022-08-11T14:00:48;32.30;52.70
16578;DHT22;8401;52.528;13.340;2022-08-11T14:03:16;32.30;52.70
16578;DHT22;8401;52.528;13.340;2022-08-11T14:05:48;32.30;52.20
16578;DHT22;8401;52.528;13.340;2022-08-11T14:08:25;32.10;52.00
16578;DHT22;8401;52.528;13.340;2022-08-11T14:10:52;32.30;52.40
16578;DHT22;8401;52.528;13.340;2022-08-11T14:13:41;32.20;52.00
16578;DHT22;8401;52.528;13.340;2022-08-11T14:16:20;31.90;52.90
16578;DHT22;8401;52.528;13.340;2022-08-11T14:18:53;32.10;52.60
16578;DHT22;8401;52.528;13.340;2022-08-11T14:21:20;32.10;52.40
16578;DHT22;8401;52.528;13.340;2022-08-11T14:24:07;32.20;52.20
16578;DHT22;8401;52.528;13.340;2022-08-11T14:26:36;32.40;51.90
16578;DHT22;8401;52.528;13.340;2022-08-11T14:29:13;32.30;52.00
16578;DHT22;8401;52.528;13.340;2022-08-11T14:31:45;32.50;51.40
16578;DHT22;8401;52.528;13.340;2022-08-11T14:34:11;32.30;51.50
16578;DHT22;8401;52.528;13.340;2022-08-11T14:36:53;32.00;50.90
16578;DHT22;8401;52.528;13.340;2022-08-11T14:39:33;32.00;51.30
16578;DHT22;8401;52.528;13.340;2022-08-11T14:42:04;32.00;51.40
16578;DHT22;8401;52.528;13.340;2022-08-11T14:44:54;32.00;51.70
16578;DHT22;8401;52.528;13.340;2022-08-11T14:47:40;32.00;51.10
16578;DHT22;8401;52.528;13.340;2022-08-11T14:50:11;31.60;51.60
16578;DHT22;8401;52.528;13.340;2022-08-11T14:52:59;31.70;51.30
16578;DHT22;8401;52.528;13.340;2022-08-11T14:55:28;31.70;51.10
16578;DHT22;8401;52.528;13.340;2022-08-11T14:58:20;31.70;50.60
16578;DHT22;8401;52.528;13.340;2022-08-11T15:00:54;31.60;50.40
16578;DHT22;8401;52.528;13.340;2022-08-11T15:03:21;31.60;50.60
16578;DHT22;8401;52.528;13.340;2022-08-11T15:08:16;31.50;50.40
16578;DHT22;8401;52.528;13.340;2022-08-11T15:10:43;31.40;50.40
16578;DHT22;8401;52.528;13.340;2022-08-11T15:13:09;31.30;50.30
16578;DHT22;8401;52.528;13.340;2022-08-11T15:15:36;31.30;50.20
16578;DHT22;8401;52.528;13.340;2022-08-11T15:18:21;31.40;50.60
16578;DHT22;8401;52.528;13.340;2022-08-11T15:20:51;31.50;50.50
16578;DHT22;8401;52.528;13.340;2022-08-11T15:23:38;31.70;49.90
16578;DHT22;8401;52.528;13.340;2022-08-11T15:26:38;31.70;50.10
16578;DHT22;8401;52.528;13.340;2022-08-11T15:29:26;31.40;50.00
16578;DHT22;8401;52.528;13.340;2022-08-11T15:32:12;31.30;50.50
16578;DHT22;8401;52.528;13.340;2022-08-11T15:34:56;31.30;50.70
16578;DHT22;8401;52.528;13.340;2022-08-11T15:37:43;31.40;49.80
16578;DHT22;8401;52.528;13.340;2022-08-11T15:40:17;31.30;49.70
16578;DHT22;8401;52.528;13.340;2022-08-11T15:46:02;31.10;49.70
16578;DHT22;8401;52.528;13.340;2022-08-11T15:48:34;31.20;49.90
16578;DHT22;8401;52.528;13.340;2022-08-11T15:53:57;30.90;50.10
16578;DHT22;8401;52.528;13.340;2022-08-11T15:56:25;30.90;50.60
16578;DHT22;8401;52.528;13.340;2022-08-11T15:58:55;30.70;50.60
16578;DHT22;8401;52.528;13.340;2022-08-11T16:01:42;30.80;50.90
16578;DHT22;8401;52.528;13.340;2022-08-11T16:04:29;30.90;50.60
16578;DHT22;8401;52.528;13.340;2022-08-11T16:07:10;31.10;49.90
16578;DHT22;8401;52.528;13.340;2022-08-11T16:09:59;31.10;49.90
16578;DHT22;8401;52.528;13.340;2022-08-11T16:12:37;31.20;49.80
16578;DHT22;8401;52.528;13.340;2022-08-11T16:15:06;31.00;49.80
16578;DHT22;8401;52.528;13.340;2022-08-11T16:18:01;30.90;49.10
16578;DHT22;8401;52.528;13.340;2022-08-11T16:20:28;30.80;50.00
16578;DHT22;8401;52.528;13.340;2022-08-11T16:23:01;30.70;49.90
16578;DHT22;8401;52.528;13.340;2022-08-11T16:25:29;30.50;49.30
16578;DHT22;8401;52.528;13.340;2022-08-11T16:27:58;30.40;49.70
16578;DHT22;8401;52.528;13.340;2022-08-11T16:30:26;30.40;50.10
16578;DHT22;8401;52.528;13.340;2022-08-11T16:32:53;30.30;50.20
16578;DHT22;8401;52.528;13.340;2022-08-11T16:35:23;30.40;50.20
16578;DHT22;8401;52.528;13.340;2022-08-11T16:38:09;30.40;50.50
16578;DHT22;8401;52.528;13.340;2022-08-11T16:40:56;30.40;50.40
16578;DHT22;8401;52.528;13.340;2022-08-11T16:43:26;30.60;50.50
16578;DHT22;8401;52.528;13.340;2022-08-11T16:46:13;30.20;49.60
16578;DHT22;8401;52.528;13.340;2022-08-11T16:49:07;30.20;49.80
16578;DHT22;8401;52.528;13.340;2022-08-11T16:51:35;30.10;49.60
16578;DHT22;8401;52.528;13.340;2022-08-11T16:54:02;29.90;49.60
16578;DHT22;8401;52.528;13.340;2022-08-11T16:56:49;29.90;49.90
16578;DHT22;8401;52.528;13.340;2022-08-11T16:59:35;30.00;50.30
16578;DHT22;8401;52.528;13.340;2022-08-11T17:02:06;30.00;49.40
16578;DHT22;8401;52.528;13.340;2022-08-11T17:04:45;29.80;50.00
16578;DHT22;8401;52.528;13.340;2022-08-11T17:07:31;29.80;50.30
16578;DHT22;8401;52.528;13.340;2022-08-11T17:10:34;29.70;49.80
16578;DHT22;8401;52.528;13.340;2022-08-11T17:13:24;29.60;50.20
16578;DHT22;8401;52.528;13.340;2022-08-11T17:15:55;29.50;50.30
16578;DHT22;8401;52.528;13.340;2022-08-11T17:19:17;29.60;51.00
16578;DHT22;8401;52.528;13.340;2022-08-11T17:21:45;29.50;51.20
16578;DHT22;8401;52.528;13.340;2022-08-11T17:24:34;29.50;51.20
16578;DHT22;8401;52.528;13.340;2022-08-11T17:27:02;29.60;50.30
16578;DHT22;8401;52.528;13.340;2022-08-11T17:32:07;29.30;50.00
16578;DHT22;8401;52.528;13.340;2022-08-11T17:34:55;29.20;50.50
16578;DHT22;8401;52.528;13.340;2022-08-11T17:37:42;29.00;50.40
16578;DHT22;8401;52.528;13.340;2022-08-11T17:40:10;29.00;50.40
16578;DHT22;8401;52.528;13.340;2022-08-11T17:42:39;28.90;50.60
16578;DHT22;8401;52.528;13.340;2022-08-11T17:45:25;28.80;50.70
16578;DHT22;8401;52.528;13.340;2022-08-11T17:48:11;28.80;50.70
16578;DHT22;8401;52.528;13.340;2022-08-11T17:51:13;28.80;50.90
16578;DHT22;8401;52.528;13.340;2022-08-11T17:54:03;28.80;51.40
16578;DHT22;8401;52.528;13.340;2022-08-11T17:56:49;28.70;51.40
16578;DHT22;8401;52.528;13.340;2022-08-11T17:59:36;28.70;51.00
16578;DHT22;8401;52.528;13.340;2022-08-11T18:02:28;28.70;51.00
16578;DHT22;8401;52.528;13.340;2022-08-11T18:05:19;28.60;51.10
16578;DHT22;8401;52.528;13.340;2022-08-11T18:07:47;28.40;51.50
16578;DHT22;8401;52.528;13.340;2022-08-11T18:10:33;28.40;51.50
16578;DHT22;8401;52.528;13.340;2022-08-11T18:13:20;28.20;51.50
16578;DHT22;8401;52.528;13.340;2022-08-11T18:16:04;28.20;52.20
16578;DHT22;8401;52.528;13.340;2022-08-11T18:18:49;28.10;52.50
16578;DHT22;8401;52.528;13.340;2022-08-11T18:21:34;28.10;52.40
16578;DHT22;8401;52.528;13.340;2022-08-11T18:24:22;28.10;52.50
16578;DHT22;8401;52.528;13.340;2022-08-11T18:27:08;28.00;52.50
16578;DHT22;8401;52.528;13.340;2022-08-11T18:29:55;27.90;52.30
16578;DHT22;8401;52.528;13.340;2022-08-11T18:32:40;27.80;52.60
16578;DHT22;8401;52.528;13.340;2022-08-11T18:35:26;27.80;52.40
16578;DHT22;8401;52.528;13.340;2022-08-11T18:38:13;27.70;52.90
16578;DHT22;8401;52.528;13.340;2022-08-11T18:41:00;27.70;52.80
16578;DHT22;8401;52.528;13.340;2022-08-11T18:43:47;27.60;53.20
16578;DHT22;8401;52.528;13.340;2022-08-11T18:46:35;27.60;53.00
16578;DHT22;8401;52.528;13.340;2022-08-11T18:49:26;27.50;53.30
16578;DHT22;8401;52.528;13.340;2022-08-11T18:52:13;27.50;53.20
16578;DHT22;8401;52.528;13.340;2022-08-11T18:54:59;27.40;53.50
16578;DHT22;8401;52.528;13.340;2022-08-11T18:57:47;27.30;54.10
16578;DHT22;8401;52.528;13.340;2022-08-11T19:00:33;27.30;53.70
16578;DHT22;8401;52.528;13.340;2022-08-11T19:03:18;27.20;53.90
16578;DHT22;8401;52.528;13.340;2022-08-11T19:06:05;27.10;54.80
16578;DHT22;8401;52.528;13.340;2022-08-11T19:08:56;27.10;54.60
16578;DHT22;8401;52.528;13.340;2022-08-11T19:11:42;27.00;54.70
16578;DHT22;8401;52.528;13.340;2022-08-11T19:14:28;27.00;54.70
16578;DHT22;8401;52.528;13.340;2022-08-11T19:17:14;27.00;55.00
16578;DHT22;8401;52.528;13.340;2022-08-11T19:20:02;26.70;55.60
16578;DHT22;8401;52.528;13.340;2022-08-11T19:22:48;26.80;55.30
16578;DHT22;8401;52.528;13.340;2022-08-11T19:25:33;26.80;55.30
16578;DHT22;8401;52.528;13.340;2022-08-11T19:28:19;26.70;55.50
16578;DHT22;8401;52.528;13.340;2022-08-11T19:31:06;26.70;55.80
16578;DHT22;8401;52.528;13.340;2022-08-11T19:33:51;26.60;56.00
16578;DHT22;8401;52.528;13.340;2022-08-11T19:36:37;26.50;56.40
16578;DHT22;8401;52.528;13.340;2022-08-11T19:39:23;26.30;57.00
16578;DHT22;8401;52.528;13.340;2022-08-11T19:42:09;26.10;57.10
16578;DHT22;8401;52.528;13.340;2022-08-11T19:44:55;26.00;57.50
16578;DHT22;8401;52.528;13.340;2022-08-11T19:47:41;26.00;57.60
16578;DHT22;8401;52.528;13.340;2022-08-11T19:50:26;25.90;58.50
16578;DHT22;8401;52.528;13.340;2022-08-11T19:53:11;25.80;58.70
16578;DHT22;8401;52.528;13.340;2022-08-11T19:55:56;25.70;58.60
16578;DHT22;8401;52.528;13.340;2022-08-11T19:58:41;25.60;58.90
16578;DHT22;8401;52.528;13.340;2022-08-11T20:01:26;25.50;58.70
16578;DHT22;8401;52.528;13.340;2022-08-11T20:04:10;25.50;59.50
16578;DHT22;8401;52.528;13.340;2022-08-11T20:06:55;25.50;59.20